x

East Lake Ontario - 20nm North Northeast Of Rochester, Ny (45012) Wave Buoy

9:50am - Thu 27th Jul 2017 All times are CDT. -5 hours from GMT.

  • Sig Wave height 3.0ft
  • Swell Direction
  • Peak Period 5s
  • Average Period 4s
  • Wind
    18mph, 22mph gusts
  • Sea Temp 70°f
  • Air Temp 69°f
  • Sea Pressure 1013.4mb
  • East Lake Ontario  - 20nm North Northeast Of Rochester, Ny
  • East Lake Ontario  - 20nm North Northeast Of Rochester, Ny

More Historic Weather Station data

Upgrade to MSW Pro to gain access to the past 30 days of data for over 8000 Wavebouys and Weather Stations around the globe.

Join Pro

Comparision Forecast

View Surf forecast
   
Thu 07/27 9:50am 3ft 5s 4s 18 22 mph 1013.4mb 70f 69f
8:50am 3.5ft 5s 4s 18 20 mph 1013.2mb 70f 69f
7:50am 3ft 4s 4s 20 25 mph 1013.6mb 70f 69f
6:50am 2ft 4s 3s 16 22 mph 1013.8mb 70f 68f
5:50am 1.6ft 3s 3s 16 20 mph 1013.9mb 70f 68f
4:50am 1.3ft 3s 3s 16 18 mph 1013.6mb 70f 70f
3:50am 1ft 3s 3s 13 18 mph 1013.3mb 70f 70f
2:50am 1ft 3s 3s 11 16 mph 1013.4mb 70f 71f
12:50am 0.7ft  -  2s 13 18 mph 1014.2mb 70f 71f
Wed 07/26 11:50pm 0.3ft  -  3s 9 11 mph 1014.9mb 70f 71f
10:50pm 0.3ft  -  3s 11 13 mph 1015.2mb 70f 71f
9:50pm 0.3ft  -  3s 9 9 mph 1015.6mb 70f 70f
8:50pm 0.3ft  -  3s 9 11 mph 1016.5mb 70f 69f
7:50pm 0.3ft  -  3s 2 4 mph 1017.5mb 70f 69f
6:50pm 0.3ft  -  3s 7 7 mph 1018.5mb 70f 69f
5:50pm 0.7ft  -  3s 4 7 mph 1017.9mb 71f 69f
4:50pm 0.7ft  -  3s 7 7 mph 1018mb 71f 69f
3:50pm 1ft 3s 3s 4 7 mph 1018.7mb 71f 69f
2:50pm 0.7ft  -  3s 11 13 mph 1018.4mb 71f 69f
1:50pm 0.3ft  -  3s 9 11 mph 1020mb 71f 68f
12:50pm 0.3ft  -  2s 9 11 mph 1020.8mb 70f 68f
11:50am 0.3ft  -  2s 9 11 mph 1021.3mb 70f 67f
10:50am 0.3ft  -  2s 9 11 mph 1022mb 70f 67f
9:50am 0.7ft  -  3s 7 7 mph 1022.5mb 70f 66f
8:50am 0.3ft  -  3s 9 11 mph 1022.3mb 70f 66f
7:50am 0.3ft  -  3s 7 11 mph 1023.2mb 69f 66f
6:50am 0.3ft  -  3s 4 7 mph 1023.2mb 69f 66f
5:50am 0.7ft  -  3s 7 9 mph 1023.5mb 69f 66f
4:50am 0.7ft  -  3s 7 9 mph 1023.3mb 69f 66f
3:50am 0.3ft  -  3s 4 4 mph 1022.8mb 69f 66f
2:50am 0.3ft  -  3s 7 9 mph 1022.8mb 69f 66f
1:50am 0.3ft  -  3s 4 7 mph 1023.2mb 70f 67f
12:50am 0.3ft  -  3s 4 4 mph 1023.1mb 70f 66f
Tue 07/25 11:50pm 0.7ft  -  3s 2 4 mph 1023.5mb 70f 67f
10:50pm 0.7ft  -  3s 4 7 mph 1023.7mb 70f 67f
9:50pm 0.7ft  -  3s 4 4 mph 1023.8mb 70f 67f
8:50pm 1ft 4s 3s 7 9 mph 1023.8mb 70f 67f
7:50pm 1ft 4s 4s 7 9 mph 1023.4mb 70f 67f
6:50pm 1.3ft 4s 4s  -  2 mph 1023.3mb 71f 67f
5:50pm 1.6ft 4s 4s 4 7 mph 1022.6mb 70f 67f
4:50pm 2ft 4s 4s 4 7 mph 1022.7mb 70f 67f
3:50pm 2ft 5s 4s 7 11 mph 1022.4mb 70f 66f
2:50pm 2.5ft 5s 4s 9 13 mph 1022.2mb 70f 66f
1:50pm 2.5ft 5s 4s 9 13 mph 1022.4mb 70f 65f
12:50pm 2.5ft 5s 4s 9 13 mph 1022.2mb 70f 64f
11:50am 3ft 4s 4s 13 16 mph 1021.4mb 70f 63f
10:50am 3ft 4s 4s 18 25 mph 1020.7mb 70f 63f
9:50am 3ft 4s 4s 20 22 mph 1020.6mb 70f 63f
8:50am 3ft 4s 4s 20 25 mph 1019.6mb 70f 62f
7:50am 3ft 4s 4s 20 25 mph 1019.2mb 70f 62f
6:50am 2.5ft 4s 4s 20 25 mph 1018.3mb 70f 62f
5:50am 2.5ft 4s 3s 20 25 mph 1017.6mb 70f 62f
4:50am 2.5ft 4s 3s 20 25 mph 1016.6mb 71f 62f
3:50am 2.5ft 4s 3s 20 25 mph 1015.8mb 71f 62f
2:50am 2ft 4s 3s 18 22 mph 1015.3mb 71f 62f
1:50am 2ft 3s 3s 18 22 mph 1014.7mb 71f 63f
12:50am 1.6ft 3s 3s 16 20 mph 1014.2mb 71f 63f
Mon 07/24 11:50pm 2ft 3s 3s 16 18 mph 1013.8mb 71f 63f
10:50pm 1.6ft 3s 3s 16 18 mph 1013mb 71f 64f
9:50pm 1.6ft 3s 3s 16 18 mph 1012.5mb 72f 65f
8:50pm 1.3ft 3s 3s 11 16 mph 1011.9mb 72f 66f
7:50pm 1.3ft 3s 3s 11 13 mph 1011.1mb 72f 66f
6:50pm 1.3ft 4s 3s 11 13 mph 1010.4mb 72f 67f
5:50pm 1.3ft 3s 3s 11 13 mph 1010mb 72f 67f
4:50pm 1.6ft 4s 3s 11 13 mph 1009.3mb 72f 66f
3:50pm 1.6ft 3s 3s 13 18 mph 1008.9mb 72f 66f
2:50pm 1.3ft 3s 3s 16 18 mph 1008.3mb 72f 66f
1:50pm 1ft 2s 3s 11 13 mph 1007.8mb 72f 68f
12:50pm 1ft 4s 3s 11 13 mph 1007.3mb 72f 67f
11:50am 1ft 3s 3s 11 16 mph 1007.1mb 72f 68f
10:50am 1.3ft 3s 3s 9 11 mph 1007.1mb 71f 67f
9:50am 2ft 3s 3s 4 7 mph 1007.3mb 71f 67f
8:50am 2ft 3s 3s 13 16 mph 1006.5mb 71f 66f
7:50am 2ft 4s 4s 18 20 mph 1006mb 71f 67f
6:50am 2.5ft 4s 4s 7 9 mph 1005.4mb 71f 69f
5:50am 2ft 4s 3s 16 20 mph 1004.7mb 71f 71f
4:50am 2ft 3s 3s 16 18 mph 1004.7mb 71f 71f
3:50am 2ft 5s 4s 13 18 mph 1004.6mb 71f 71f
2:50am 2.5ft 5s 4s 9 11 mph 1004.8mb 72f 71f
1:50am 3.5ft 5s 4s 9 11 mph 1005.8mb 72f 72f
12:50am 4ft 5s 4s 16 18 mph 1005.6mb 72f 71f
Sun 07/23 11:50pm 4.5ft 5s 5s 20 27 mph 1005.9mb 72f 71f
10:50pm 4.5ft 5s 4s 25 29 mph 1005.9mb 72f 71f
9:50pm 4.5ft 5s 4s 27 29 mph 1006.9mb 72f 71f
8:50pm 4.5ft 6s 4s 27 34 mph 1007.2mb 72f 72f
7:50pm 4ft 5s 4s 27 31 mph 1006.7mb 72f 72f
6:50pm 4ft 5s 4s 27 34 mph 1006.7mb 72f 73f
5:50pm 4ft 5s 4s 25 27 mph 1007mb 72f 73f
4:50pm 3.5ft 5s 4s 22 27 mph 1007.3mb 73f 72f